Alexander City, Alabama
Current Conditions -  °F | °C
As of 3:55 PM on Monday 20 Oct 2014 (Local Time) from KALX Reporting Station
Clear Clear  
Wind Chill: 74°   Ceiling: Unl
Heat Index: 74°   Visibility: 10mi
Dew Point: 50°   Wind: 5mph
Humidity: 44%   Direction: 260°W
Pressure: 30.01"   Gusts: NA
Location:  32.94°N, 85.95°W
Report Text: KALX 202055Z AUTO 26004KT 10SM CLR 23/10 A3001 RMK AO2 T02320102
Loading
Personal Weather Stations






























Interactive Weather Map
Tropical Storm Tracking
New forecast layout! Learn more

10-Day Weather Forecast

Advertisements
Track Severe Weather on mobile